sensor_id;sensor_type;location;lat;lon;timestamp;pressure;altitude;pressure_sealevel;temperature;humidity
30708;BME280;17458;48.958;8.284;2022-10-16T00:02:23;100168.31;;;17.65;92.61
30708;BME280;17458;48.958;8.284;2022-10-16T00:05:07;100172.03;;;17.73;92.79
30708;BME280;17458;48.958;8.284;2022-10-16T00:07:50;100169.47;;;17.79;92.28
30708;BME280;17458;48.958;8.284;2022-10-16T00:10:35;100156.91;;;17.78;92.62
30708;BME280;17458;48.958;8.284;2022-10-16T00:13:19;100172.19;;;17.81;92.59
30708;BME280;17458;48.958;8.284;2022-10-16T00:16:05;100155.44;;;17.95;91.87
30708;BME280;17458;48.958;8.284;2022-10-16T00:18:50;100158.84;;;17.87;92.20
30708;BME280;17458;48.958;8.284;2022-10-16T00:21:34;100157.94;;;17.86;92.35
30708;BME280;17458;48.958;8.284;2022-10-16T00:24:18;100155.25;;;17.86;92.37
30708;BME280;17458;48.958;8.284;2022-10-16T00:27:02;100157.09;;;17.89;92.37
30708;BME280;17458;48.958;8.284;2022-10-16T00:29:50;100153.41;;;17.84;92.42
30708;BME280;17458;48.958;8.284;2022-10-16T00:32:35;100158.00;;;17.89;92.50
30708;BME280;17458;48.958;8.284;2022-10-16T00:35:19;100160.59;;;17.85;92.46
30708;BME280;17458;48.958;8.284;2022-10-16T00:38:03;100159.66;;;17.83;93.19
30708;BME280;17458;48.958;8.284;2022-10-16T00:40:47;100159.81;;;17.90;92.71
30708;BME280;17458;48.958;8.284;2022-10-16T00:46:35;100147.38;;;17.97;92.32
30708;BME280;17458;48.958;8.284;2022-10-16T00:49:20;100158.06;;;17.92;92.26
30708;BME280;17458;48.958;8.284;2022-10-16T00:52:05;100157.06;;;17.87;93.25
30708;BME280;17458;48.958;8.284;2022-10-16T00:54:50;100163.41;;;17.91;92.81
30708;BME280;17458;48.958;8.284;2022-10-16T00:57:37;100168.72;;;17.88;92.81
30708;BME280;17458;48.958;8.284;2022-10-16T01:00:25;100169.75;;;17.94;92.24
30708;BME280;17458;48.958;8.284;2022-10-16T01:03:42;100172.41;;;17.93;92.43
30708;BME280;17458;48.958;8.284;2022-10-16T01:07:06;100178.63;;;17.90;92.75
30708;BME280;17458;48.958;8.284;2022-10-16T01:13:04;100181.41;;;17.95;92.33
30708;BME280;17458;48.958;8.284;2022-10-16T01:15:56;100182.34;;;17.98;92.33
30708;BME280;17458;48.958;8.284;2022-10-16T01:18:47;100185.38;;;17.67;94.12
30708;BME280;17458;48.958;8.284;2022-10-16T01:21:36;100194.53;;;17.78;93.86
30708;BME280;17458;48.958;8.284;2022-10-16T01:24:38;100186.69;;;17.90;93.37
30708;BME280;17458;48.958;8.284;2022-10-16T01:27:34;100182.00;;;17.79;93.65
30708;BME280;17458;48.958;8.284;2022-10-16T01:30:24;100178.47;;;17.83;93.52
30708;BME280;17458;48.958;8.284;2022-10-16T01:33:26;100178.47;;;17.81;93.19
30708;BME280;17458;48.958;8.284;2022-10-16T01:36:15;100163.09;;;17.74;93.43
30708;BME280;17458;48.958;8.284;2022-10-16T01:39:02;100169.25;;;17.67;94.01
30708;BME280;17458;48.958;8.284;2022-10-16T01:41:49;100165.84;;;17.77;93.86
30708;BME280;17458;48.958;8.284;2022-10-16T01:44:38;100165.81;;;17.76;93.80
30708;BME280;17458;48.958;8.284;2022-10-16T01:47:25;100155.13;;;17.79;93.69
30708;BME280;17458;48.958;8.284;2022-10-16T01:50:12;100164.13;;;17.81;93.34
30708;BME280;17458;48.958;8.284;2022-10-16T01:53:02;100163.03;;;17.71;93.55
30708;BME280;17458;48.958;8.284;2022-10-16T01:55:47;100158.28;;;17.58;94.24
30708;BME280;17458;48.958;8.284;2022-10-16T01:58:35;100165.69;;;17.68;93.88
30708;BME280;17458;48.958;8.284;2022-10-16T02:01:23;100168.13;;;17.57;94.05
30708;BME280;17458;48.958;8.284;2022-10-16T02:04:48;100169.94;;;17.58;94.13
30708;BME280;17458;48.958;8.284;2022-10-16T02:07:32;100175.06;;;17.46;94.11
30708;BME280;17458;48.958;8.284;2022-10-16T02:10:17;100179.56;;;17.47;94.22
30708;BME280;17458;48.958;8.284;2022-10-16T02:13:18;100183.13;;;17.46;94.25
30708;BME280;17458;48.958;8.284;2022-10-16T02:16:05;100184.00;;;17.45;94.55
30708;BME280;17458;48.958;8.284;2022-10-16T02:18:50;100188.47;;;17.45;94.09
30708;BME280;17458;48.958;8.284;2022-10-16T02:24:33;100183.88;;;17.38;94.56
30708;BME280;17458;48.958;8.284;2022-10-16T02:30:16;100190.69;;;17.22;95.91
30708;BME280;17458;48.958;8.284;2022-10-16T02:33:05;100185.38;;;17.23;96.15
30708;BME280;17458;48.958;8.284;2022-10-16T02:35:51;100185.47;;;17.29;95.31
30708;BME280;17458;48.958;8.284;2022-10-16T02:38:36;100185.47;;;17.29;95.03
30708;BME280;17458;48.958;8.284;2022-10-16T02:41:21;100180.22;;;17.34;94.57
30708;BME280;17458;48.958;8.284;2022-10-16T02:44:07;100187.25;;;17.29;94.46
30708;BME280;17458;48.958;8.284;2022-10-16T02:46:51;100190.75;;;17.23;94.52
30708;BME280;17458;48.958;8.284;2022-10-16T02:49:35;100187.16;;;17.23;94.88
30708;BME280;17458;48.958;8.284;2022-10-16T02:52:19;100185.63;;;17.35;93.65
30708;BME280;17458;48.958;8.284;2022-10-16T02:55:04;100193.22;;;17.14;94.22
30708;BME280;17458;48.958;8.284;2022-10-16T02:57:48;100203.06;;;17.15;94.75
30708;BME280;17458;48.958;8.284;2022-10-16T03:00:32;100208.41;;;17.12;95.17
30708;BME280;17458;48.958;8.284;2022-10-16T03:03:15;100212.91;;;17.15;95.09
30708;BME280;17458;48.958;8.284;2022-10-16T03:05:59;100210.31;;;17.19;94.89
30708;BME280;17458;48.958;8.284;2022-10-16T03:08:44;100206.72;;;17.19;94.36
30708;BME280;17458;48.958;8.284;2022-10-16T03:11:28;100205.81;;;17.18;94.23
30708;BME280;17458;48.958;8.284;2022-10-16T03:14:12;100198.66;;;17.17;94.28
30708;BME280;17458;48.958;8.284;2022-10-16T03:16:55;100206.72;;;17.19;94.35
30708;BME280;17458;48.958;8.284;2022-10-16T03:19:39;100200.47;;;17.18;94.12
30708;BME280;17458;48.958;8.284;2022-10-16T03:22:23;100194.28;;;17.22;93.99
30708;BME280;17458;48.958;8.284;2022-10-16T03:25:07;100193.34;;;17.20;93.83
30708;BME280;17458;48.958;8.284;2022-10-16T03:27:52;100197.69;;;17.15;93.95
30708;BME280;17458;48.958;8.284;2022-10-16T03:30:35;100195.78;;;17.08;94.76
30708;BME280;17458;48.958;8.284;2022-10-16T03:33:20;100192.31;;;17.12;94.20
30708;BME280;17458;48.958;8.284;2022-10-16T03:36:04;100200.28;;;17.09;94.30
30708;BME280;17458;48.958;8.284;2022-10-16T03:38:48;100211.00;;;17.09;94.65
30708;BME280;17458;48.958;8.284;2022-10-16T03:41:32;100209.19;;;17.08;94.93
30708;BME280;17458;48.958;8.284;2022-10-16T03:44:16;100210.25;;;17.16;94.99
30708;BME280;17458;48.958;8.284;2022-10-16T03:47:00;100201.44;;;17.22;94.49
30708;BME280;17458;48.958;8.284;2022-10-16T03:49:44;100206.84;;;17.23;94.43
30708;BME280;17458;48.958;8.284;2022-10-16T03:52:28;100198.91;;;17.29;94.28
30708;BME280;17458;48.958;8.284;2022-10-16T03:55:12;100198.91;;;17.29;94.32
30708;BME280;17458;48.958;8.284;2022-10-16T03:57:56;100199.56;;;17.18;94.89
30708;BME280;17458;48.958;8.284;2022-10-16T04:00:41;100205.56;;;17.06;96.12
30708;BME280;17458;48.958;8.284;2022-10-16T04:03:25;100209.50;;;17.22;95.84
30708;BME280;17458;48.958;8.284;2022-10-16T04:06:09;100202.44;;;17.28;95.27
30708;BME280;17458;48.958;8.284;2022-10-16T04:08:53;100213.31;;;17.34;95.07
30708;BME280;17458;48.958;8.284;2022-10-16T04:11:37;100206.25;;;17.38;94.54
30708;BME280;17458;48.958;8.284;2022-10-16T04:14:21;100204.34;;;17.32;94.81
30708;BME280;17458;48.958;8.284;2022-10-16T04:17:05;100214.28;;;17.36;94.73
30708;BME280;17458;48.958;8.284;2022-10-16T04:19:49;100223.28;;;17.40;94.90
30708;BME280;17458;48.958;8.284;2022-10-16T04:22:33;100225.94;;;17.39;94.64
30708;BME280;17458;48.958;8.284;2022-10-16T04:25:17;100231.22;;;17.34;94.64
30708;BME280;17458;48.958;8.284;2022-10-16T04:28:01;100239.41;;;17.40;94.65
30708;BME280;17458;48.958;8.284;2022-10-16T04:30:45;100241.19;;;17.41;94.15
30708;BME280;17458;48.958;8.284;2022-10-16T04:33:29;100243.88;;;17.41;94.20
30708;BME280;17458;48.958;8.284;2022-10-16T04:36:13;100244.75;;;17.39;93.93
30708;BME280;17458;48.958;8.284;2022-10-16T04:38:58;100243.88;;;17.40;94.00
30708;BME280;17458;48.958;8.284;2022-10-16T04:41:42;100243.84;;;17.38;94.18
30708;BME280;17458;48.958;8.284;2022-10-16T04:44:26;100249.34;;;17.46;93.65
30708;BME280;17458;48.958;8.284;2022-10-16T04:47:10;100246.66;;;17.46;93.49
30708;BME280;17458;48.958;8.284;2022-10-16T04:49:55;100239.38;;;17.39;93.65
30708;BME280;17458;48.958;8.284;2022-10-16T04:52:41;100251.16;;;17.47;93.51
30708;BME280;17458;48.958;8.284;2022-10-16T04:55:24;100252.94;;;17.46;92.95
30708;BME280;17458;48.958;8.284;2022-10-16T04:58:08;100262.91;;;17.52;93.07
30708;BME280;17458;48.958;8.284;2022-10-16T05:00:53;100263.00;;;17.58;91.98
30708;BME280;17458;48.958;8.284;2022-10-16T05:03:37;100256.63;;;17.51;92.40
30708;BME280;17458;48.958;8.284;2022-10-16T05:06:21;100262.84;;;17.49;92.42
30708;BME280;17458;48.958;8.284;2022-10-16T05:09:05;100261.97;;;17.50;92.81
30708;BME280;17458;48.958;8.284;2022-10-16T05:11:49;100262.75;;;17.46;92.79
30708;BME280;17458;48.958;8.284;2022-10-16T05:14:33;100259.28;;;17.50;92.77
30708;BME280;17458;48.958;8.284;2022-10-16T05:17:17;100258.38;;;17.49;92.77
30708;BME280;17458;48.958;8.284;2022-10-16T05:20:00;100266.47;;;17.51;92.44
30708;BME280;17458;48.958;8.284;2022-10-16T05:22:44;100266.53;;;17.55;91.93
30708;BME280;17458;48.958;8.284;2022-10-16T05:25:28;100260.94;;;17.45;92.02
30708;BME280;17458;48.958;8.284;2022-10-16T05:28:12;100262.44;;;17.30;92.70
30708;BME280;17458;48.958;8.284;2022-10-16T05:30:56;100258.78;;;17.25;93.06
30708;BME280;17458;48.958;8.284;2022-10-16T05:33:40;100274.16;;;17.34;93.21
30708;BME280;17458;48.958;8.284;2022-10-16T05:36:25;100270.41;;;17.27;93.32
30708;BME280;17458;48.958;8.284;2022-10-16T05:39:09;100272.38;;;17.34;93.12
30708;BME280;17458;48.958;8.284;2022-10-16T05:41:53;100279.59;;;17.37;93.15
30708;BME280;17458;48.958;8.284;2022-10-16T05:44:37;100285.81;;;17.34;93.11
30708;BME280;17458;48.958;8.284;2022-10-16T05:47:21;100282.16;;;17.32;93.04
30708;BME280;17458;48.958;8.284;2022-10-16T05:50:05;100267.78;;;17.29;93.07
30708;BME280;17458;48.958;8.284;2022-10-16T05:52:49;100269.63;;;17.31;93.20
30708;BME280;17458;48.958;8.284;2022-10-16T05:55:33;100273.13;;;17.29;93.06
30708;BME280;17458;48.958;8.284;2022-10-16T05:58:17;100270.16;;;17.15;93.45
30708;BME280;17458;48.958;8.284;2022-10-16T06:01:04;100275.56;;;17.17;94.03
30708;BME280;17458;48.958;8.284;2022-10-16T06:03:51;100281.13;;;17.24;93.39
30708;BME280;17458;48.958;8.284;2022-10-16T06:06:35;100289.25;;;17.29;92.82
30708;BME280;17458;48.958;8.284;2022-10-16T06:09:20;100306.25;;;17.29;92.72
30708;BME280;17458;48.958;8.284;2022-10-16T06:12:04;100298.34;;;17.35;92.37
30708;BME280;17458;48.958;8.284;2022-10-16T06:14:48;100287.44;;;17.28;92.50
30708;BME280;17458;48.958;8.284;2022-10-16T06:17:32;100275.66;;;17.21;92.82
30708;BME280;17458;48.958;8.284;2022-10-16T06:20:16;100275.75;;;17.24;93.34
30708;BME280;17458;48.958;8.284;2022-10-16T06:23:00;100292.19;;;17.40;92.94
30708;BME280;17458;48.958;8.284;2022-10-16T06:25:44;100289.44;;;17.36;93.12
30708;BME280;17458;48.958;8.284;2022-10-16T06:28:28;100289.53;;;17.43;93.03
30708;BME280;17458;48.958;8.284;2022-10-16T06:31:13;100294.94;;;17.44;93.17
30708;BME280;17458;48.958;8.284;2022-10-16T06:33:57;100305.97;;;17.58;92.42
30708;BME280;17458;48.958;8.284;2022-10-16T06:36:41;100304.00;;;17.49;92.55
30708;BME280;17458;48.958;8.284;2022-10-16T06:39:27;100307.72;;;17.54;93.03
30708;BME280;17458;48.958;8.284;2022-10-16T06:42:11;100309.81;;;17.69;92.13
30708;BME280;17458;48.958;8.284;2022-10-16T06:44:55;100314.13;;;17.62;92.22
30708;BME280;17458;48.958;8.284;2022-10-16T06:47:39;100303.66;;;17.73;92.08
30708;BME280;17458;48.958;8.284;2022-10-16T06:50:23;100299.06;;;17.69;92.31
30708;BME280;17458;48.958;8.284;2022-10-16T06:53:07;100304.41;;;17.66;92.55
30708;BME280;17458;48.958;8.284;2022-10-16T06:55:51;100302.09;;;17.86;91.48
30708;BME280;17458;48.958;8.284;2022-10-16T06:58:36;100315.78;;;17.96;90.67
30708;BME280;17458;48.958;8.284;2022-10-16T07:01:22;100313.22;;;18.04;90.23
30708;BME280;17458;48.958;8.284;2022-10-16T07:04:06;100314.97;;;18.02;91.20
30708;BME280;17458;48.958;8.284;2022-10-16T07:06:50;100319.69;;;18.15;91.18
30708;BME280;17458;48.958;8.284;2022-10-16T07:09:35;100317.19;;;18.24;90.79
30708;BME280;17458;48.958;8.284;2022-10-16T07:12:19;100334.84;;;18.10;91.83
30708;BME280;17458;48.958;8.284;2022-10-16T07:15:04;100345.75;;;18.19;90.66
30708;BME280;17458;48.958;8.284;2022-10-16T07:17:48;100344.09;;;18.24;90.90
30708;BME280;17458;48.958;8.284;2022-10-16T07:20:32;100338.78;;;18.29;90.33
30708;BME280;17458;48.958;8.284;2022-10-16T07:23:16;100345.25;;;18.40;89.82
30708;BME280;17458;48.958;8.284;2022-10-16T07:26:01;100353.47;;;18.48;90.16
30708;BME280;17458;48.958;8.284;2022-10-16T07:28:45;100363.41;;;18.53;89.10
30708;BME280;17458;48.958;8.284;2022-10-16T07:31:29;100363.16;;;18.39;88.71
30708;BME280;17458;48.958;8.284;2022-10-16T07:34:15;100366.34;;;18.64;88.80
30708;BME280;17458;48.958;8.284;2022-10-16T07:36:59;100363.84;;;18.74;88.58
30708;BME280;17458;48.958;8.284;2022-10-16T07:39:44;100366.69;;;18.85;86.69
30708;BME280;17458;48.958;8.284;2022-10-16T07:42:28;100383.06;;;18.97;86.57
30708;BME280;17458;48.958;8.284;2022-10-16T07:45:13;100386.75;;;19.04;86.31
30708;BME280;17458;48.958;8.284;2022-10-16T07:47:57;100398.47;;;19.09;85.39
30708;BME280;17458;48.958;8.284;2022-10-16T07:50:41;100395.97;;;19.18;85.73
30708;BME280;17458;48.958;8.284;2022-10-16T07:53:25;100407.66;;;19.20;85.43
30708;BME280;17458;48.958;8.284;2022-10-16T07:56:10;100410.38;;;19.23;84.69
30708;BME280;17458;48.958;8.284;2022-10-16T07:58:55;100402.34;;;19.25;85.40
30708;BME280;17458;48.958;8.284;2022-10-16T08:01:40;100400.34;;;19.13;83.84
30708;BME280;17458;48.958;8.284;2022-10-16T08:04:25;100408.53;;;19.19;84.10
30708;BME280;17458;48.958;8.284;2022-10-16T08:07:09;100405.94;;;19.25;83.99
30708;BME280;17458;48.958;8.284;2022-10-16T08:09:53;100405.31;;;19.43;83.76
30708;BME280;17458;48.958;8.284;2022-10-16T08:12:37;100395.53;;;19.48;83.75
30708;BME280;17458;48.958;8.284;2022-10-16T08:15:22;100393.00;;;19.57;83.61
30708;BME280;17458;48.958;8.284;2022-10-16T08:18:05;100385.78;;;19.56;82.76
30708;BME280;17458;48.958;8.284;2022-10-16T08:20:57;100384.81;;;19.50;84.10
30708;BME280;17458;48.958;8.284;2022-10-16T08:23:41;100399.25;;;19.56;83.06
30708;BME280;17458;48.958;8.284;2022-10-16T08:26:26;100398.50;;;19.65;82.54
30708;BME280;17458;48.958;8.284;2022-10-16T08:29:13;100402.72;;;19.47;81.58
30708;BME280;17458;48.958;8.284;2022-10-16T08:31:57;100412.97;;;19.73;81.96
30708;BME280;17458;48.958;8.284;2022-10-16T08:34:41;100420.19;;;19.74;81.55
30708;BME280;17458;48.958;8.284;2022-10-16T08:37:24;100429.47;;;19.97;81.24
30708;BME280;17458;48.958;8.284;2022-10-16T08:48:59;100447.19;;;20.45;77.55
30708;BME280;17458;48.958;8.284;2022-10-16T08:51:44;100458.19;;;20.65;77.39
30708;BME280;17458;48.958;8.284;2022-10-16T08:54:41;100462.72;;;20.67;76.38
30708;BME280;17458;48.958;8.284;2022-10-16T08:57:27;100455.66;;;20.77;76.37
30708;BME280;17458;48.958;8.284;2022-10-16T09:00:13;100458.38;;;20.81;76.55
30708;BME280;17458;48.958;8.284;2022-10-16T09:03:05;100467.53;;;20.99;75.25
30708;BME280;17458;48.958;8.284;2022-10-16T09:06:00;100461.25;;;21.00;75.52
30708;BME280;17458;48.958;8.284;2022-10-16T09:12:19;100476.44;;;20.88;74.17
30708;BME280;17458;48.958;8.284;2022-10-16T09:15:23;100484.66;;;20.99;75.93
30708;BME280;17458;48.958;8.284;2022-10-16T09:18:17;100494.59;;;21.03;74.10
30708;BME280;17458;48.958;8.284;2022-10-16T09:21:14;100494.06;;;20.55;76.18
30708;BME280;17458;48.958;8.284;2022-10-16T09:24:16;100493.47;;;20.83;75.04
30708;BME280;17458;48.958;8.284;2022-10-16T09:27:01;100492.66;;;20.90;74.67
30708;BME280;17458;48.958;8.284;2022-10-16T09:29:45;100492.91;;;21.16;74.78
30708;BME280;17458;48.958;8.284;2022-10-16T09:32:29;100499.22;;;21.16;73.49
30708;BME280;17458;48.958;8.284;2022-10-16T09:35:20;100503.94;;;21.39;73.17
30708;BME280;17458;48.958;8.284;2022-10-16T09:38:06;100520.44;;;21.71;72.51
30708;BME280;17458;48.958;8.284;2022-10-16T09:40:50;100512.38;;;21.78;72.34
30708;BME280;17458;48.958;8.284;2022-10-16T09:46:34;100515.41;;;22.27;70.60
30708;BME280;17458;48.958;8.284;2022-10-16T09:49:25;100514.59;;;22.48;69.17
30708;BME280;17458;48.958;8.284;2022-10-16T09:52:14;100512.44;;;21.90;70.99
30708;BME280;17458;48.958;8.284;2022-10-16T09:55:13;100518.91;;;22.03;69.92
30708;BME280;17458;48.958;8.284;2022-10-16T09:57:58;100518.97;;;22.15;69.23
30708;BME280;17458;48.958;8.284;2022-10-16T10:00:49;100524.44;;;22.27;68.83
30708;BME280;17458;48.958;8.284;2022-10-16T10:03:38;100527.22;;;22.41;68.72
30708;BME280;17458;48.958;8.284;2022-10-16T10:06:25;100536.06;;;22.11;68.93
30708;BME280;17458;48.958;8.284;2022-10-16T10:09:28;100539.00;;;22.60;67.60
30708;BME280;17458;48.958;8.284;2022-10-16T10:12:38;100533.59;;;22.57;66.88
30708;BME280;17458;48.958;8.284;2022-10-16T10:15:22;100536.25;;;22.49;66.21
30708;BME280;17458;48.958;8.284;2022-10-16T10:18:18;100546.28;;;22.72;66.23
30708;BME280;17458;48.958;8.284;2022-10-16T10:21:03;100550.84;;;22.77;66.57
30708;BME280;17458;48.958;8.284;2022-10-16T10:23:56;100547.19;;;22.68;66.34
30708;BME280;17458;48.958;8.284;2022-10-16T10:27:09;100548.06;;;22.63;67.92
30708;BME280;17458;48.958;8.284;2022-10-16T10:39:11;100522.97;;;23.12;65.30
30708;BME280;17458;48.958;8.284;2022-10-16T10:42:44;100531.97;;;23.03;64.15
30708;BME280;17458;48.958;8.284;2022-10-16T10:45:42;100533.72;;;22.81;65.19
30708;BME280;17458;48.958;8.284;2022-10-16T11:01:16;100550.03;;;23.16;64.09
30708;BME280;17458;48.958;8.284;2022-10-16T11:04:33;100548.28;;;23.33;63.96
30708;BME280;17458;48.958;8.284;2022-10-16T11:07:23;100539.25;;;23.25;63.38
30708;BME280;17458;48.958;8.284;2022-10-16T11:10:15;100536.53;;;23.50;64.10
30708;BME280;17458;48.958;8.284;2022-10-16T11:13:14;100541.13;;;23.67;64.51
30708;BME280;17458;48.958;8.284;2022-10-16T11:16:24;100536.56;;;23.76;62.86
30708;BME280;17458;48.958;8.284;2022-10-16T11:19:28;100536.50;;;24.17;62.14
30708;BME280;17458;48.958;8.284;2022-10-16T11:28:07;100520.94;;;24.72;61.85
30708;BME280;17458;48.958;8.284;2022-10-16T11:31:37;100520.31;;;23.63;61.05
30708;BME280;17458;48.958;8.284;2022-10-16T11:34:32;100510.28;;;24.29;61.21
30708;BME280;17458;48.958;8.284;2022-10-16T11:37:26;100510.31;;;24.26;59.52
30708;BME280;17458;48.958;8.284;2022-10-16T11:40:29;100506.59;;;24.53;59.00
30708;BME280;17458;48.958;8.284;2022-10-16T11:43:24;100515.53;;;24.72;58.68
30708;BME280;17458;48.958;8.284;2022-10-16T11:46:18;100510.22;;;24.49;59.98
30708;BME280;17458;48.958;8.284;2022-10-16T11:49:14;100512.97;;;24.40;60.09
30708;BME280;17458;48.958;8.284;2022-10-16T11:52:08;100516.59;;;24.41;59.86
30708;BME280;17458;48.958;8.284;2022-10-16T11:54:59;100514.88;;;23.73;63.07
30708;BME280;17458;48.958;8.284;2022-10-16T11:57:57;100519.38;;;23.93;60.46
30708;BME280;17458;48.958;8.284;2022-10-16T12:00:51;100519.34;;;24.09;61.26
30708;BME280;17458;48.958;8.284;2022-10-16T12:03:44;100515.75;;;24.13;59.91
30708;BME280;17458;48.958;8.284;2022-10-16T12:09:32;100509.44;;;23.95;60.99
30708;BME280;17458;48.958;8.284;2022-10-16T12:12:38;100509.44;;;23.95;59.27
30708;BME280;17458;48.958;8.284;2022-10-16T12:15:31;100510.31;;;24.03;59.53
30708;BME280;17458;48.958;8.284;2022-10-16T12:18:23;100512.19;;;23.82;60.15
30708;BME280;17458;48.958;8.284;2022-10-16T12:21:09;100500.41;;;23.81;59.18
30708;BME280;17458;48.958;8.284;2022-10-16T12:23:56;100495.91;;;23.77;59.54
30708;BME280;17458;48.958;8.284;2022-10-16T12:26:51;100503.13;;;23.63;60.38
30708;BME280;17458;48.958;8.284;2022-10-16T12:29:41;100491.34;;;23.91;59.98
30708;BME280;17458;48.958;8.284;2022-10-16T12:32:36;100491.34;;;23.91;60.41
30708;BME280;17458;48.958;8.284;2022-10-16T12:35:30;100499.53;;;23.84;60.18
30708;BME280;17458;48.958;8.284;2022-10-16T12:38:18;100492.25;;;23.95;60.53
30708;BME280;17458;48.958;8.284;2022-10-16T12:41:06;100495.00;;;23.74;61.14
30708;BME280;17458;48.958;8.284;2022-10-16T12:43:52;100492.28;;;23.78;61.47
30708;BME280;17458;48.958;8.284;2022-10-16T12:46:39;100495.84;;;24.04;60.60
30708;BME280;17458;48.958;8.284;2022-10-16T12:49:48;100501.25;;;24.06;61.37
30708;BME280;17458;48.958;8.284;2022-10-16T12:52:37;100499.50;;;23.94;61.40
30708;BME280;17458;48.958;8.284;2022-10-16T12:55:22;100505.84;;;23.81;60.75
30708;BME280;17458;48.958;8.284;2022-10-16T12:58:37;100501.28;;;23.86;61.13
30708;BME280;17458;48.958;8.284;2022-10-16T13:01:56;100498.59;;;23.79;59.96
30708;BME280;17458;48.958;8.284;2022-10-16T13:11:25;100500.44;;;23.57;60.33
30708;BME280;17458;48.958;8.284;2022-10-16T13:14:40;100511.25;;;23.23;61.97
30708;BME280;17458;48.958;8.284;2022-10-16T13:20:46;100506.75;;;23.39;60.90
30708;BME280;17458;48.958;8.284;2022-10-16T13:29:18;100494.97;;;23.13;60.45
30708;BME280;17458;48.958;8.284;2022-10-16T13:32:08;100496.78;;;23.35;60.61
30708;BME280;17458;48.958;8.284;2022-10-16T13:34:53;100491.38;;;23.24;61.63
30708;BME280;17458;48.958;8.284;2022-10-16T13:37:38;100495.91;;;23.30;61.16
30708;BME280;17458;48.958;8.284;2022-10-16T13:40:23;100483.28;;;23.53;62.99
30708;BME280;17458;48.958;8.284;2022-10-16T13:43:08;100489.59;;;23.64;62.01
30708;BME280;17458;48.958;8.284;2022-10-16T13:45:54;100489.59;;;23.51;59.84
30708;BME280;17458;48.958;8.284;2022-10-16T13:48:39;100498.59;;;23.47;60.86
30708;BME280;17458;48.958;8.284;2022-10-16T13:51:24;100503.06;;;22.94;62.63
30708;BME280;17458;48.958;8.284;2022-10-16T13:54:11;100489.56;;;23.13;62.70
30708;BME280;17458;48.958;8.284;2022-10-16T13:56:55;100496.81;;;23.29;62.51
30708;BME280;17458;48.958;8.284;2022-10-16T13:59:39;100501.28;;;23.19;63.17
30708;BME280;17458;48.958;8.284;2022-10-16T14:02:33;100497.66;;;22.99;63.56
30708;BME280;17458;48.958;8.284;2022-10-16T14:05:18;100495.84;;;23.16;61.56
30708;BME280;17458;48.958;8.284;2022-10-16T14:08:02;100496.78;;;23.37;64.02
30708;BME280;17458;48.958;8.284;2022-10-16T14:10:49;100492.28;;;23.42;65.54
30708;BME280;17458;48.958;8.284;2022-10-16T14:13:37;100498.59;;;23.48;64.81
30708;BME280;17458;48.958;8.284;2022-10-16T14:16:30;100501.28;;;23.31;63.47
30708;BME280;17458;48.958;8.284;2022-10-16T14:19:20;100501.31;;;23.38;63.86
30708;BME280;17458;48.958;8.284;2022-10-16T14:28:14;100495.88;;;23.98;61.23
30708;BME280;17458;48.958;8.284;2022-10-16T14:31:00;100483.19;;;24.08;59.42
30708;BME280;17458;48.958;8.284;2022-10-16T14:33:45;100493.06;;;24.38;59.59
30708;BME280;17458;48.958;8.284;2022-10-16T14:36:29;100496.69;;;24.40;59.85
30708;BME280;17458;48.958;8.284;2022-10-16T14:39:21;100504.72;;;24.66;59.68
30708;BME280;17458;48.958;8.284;2022-10-16T14:42:14;100496.63;;;24.54;57.76
30708;BME280;17458;48.958;8.284;2022-10-16T14:45:00;100497.59;;;24.18;60.25
30708;BME280;17458;48.958;8.284;2022-10-16T14:47:56;100497.59;;;24.19;60.29
30708;BME280;17458;48.958;8.284;2022-10-16T14:50:44;100494.91;;;24.19;59.47
30708;BME280;17458;48.958;8.284;2022-10-16T14:53:30;100491.31;;;24.11;60.77
30708;BME280;17458;48.958;8.284;2022-10-16T14:56:23;100484.88;;;24.43;60.17
30708;BME280;17458;48.958;8.284;2022-10-16T14:59:17;100490.41;;;24.11;60.04
30708;BME280;17458;48.958;8.284;2022-10-16T15:05:16;100486.78;;;24.01;60.37
30708;BME280;17458;48.958;8.284;2022-10-16T15:08:01;100492.31;;;23.69;61.84
30708;BME280;17458;48.958;8.284;2022-10-16T15:10:46;100488.66;;;23.47;62.87
30708;BME280;17458;48.958;8.284;2022-10-16T15:13:33;100478.72;;;23.22;63.24
30708;BME280;17458;48.958;8.284;2022-10-16T15:16:21;100475.13;;;23.38;63.46
30708;BME280;17458;48.958;8.284;2022-10-16T15:19:05;100496.84;;;23.56;63.09
30708;BME280;17458;48.958;8.284;2022-10-16T15:21:49;100498.63;;;23.51;63.34
30708;BME280;17458;48.958;8.284;2022-10-16T15:24:34;100491.38;;;23.59;62.71
30708;BME280;17458;48.958;8.284;2022-10-16T15:27:19;100469.66;;;23.44;63.11
30708;BME280;17458;48.958;8.284;2022-10-16T15:30:03;100489.56;;;23.48;63.74
30708;BME280;17458;48.958;8.284;2022-10-16T15:32:50;100489.56;;;23.32;64.36
30708;BME280;17458;48.958;8.284;2022-10-16T15:35:34;100489.56;;;23.46;64.34
30708;BME280;17458;48.958;8.284;2022-10-16T15:38:20;100494.97;;;23.48;64.07
30708;BME280;17458;48.958;8.284;2022-10-16T15:41:04;100486.88;;;23.28;65.76
30708;BME280;17458;48.958;8.284;2022-10-16T15:43:49;100491.38;;;23.24;66.92
30708;BME280;17458;48.958;8.284;2022-10-16T15:46:34;100496.78;;;23.26;66.93
30708;BME280;17458;48.958;8.284;2022-10-16T15:49:20;100502.22;;;23.26;66.90
30708;BME280;17458;48.958;8.284;2022-10-16T15:52:04;100500.38;;;23.19;66.87
30708;BME280;17458;48.958;8.284;2022-10-16T15:54:48;100503.97;;;23.04;68.11
30708;BME280;17458;48.958;8.284;2022-10-16T15:57:32;100495.84;;;22.96;70.16
30708;BME280;17458;48.958;8.284;2022-10-16T16:00:18;100497.63;;;22.93;70.43
30708;BME280;17458;48.958;8.284;2022-10-16T16:03:05;100512.97;;;22.89;70.41